sensor_id;sensor_type;location;lat;lon;timestamp;P1;durP1;ratioP1;P2;durP2;ratioP2
39140;SDS011;24875;48.436;10.298;2022-09-03T00:02:15;2.53;;;2.10;;
39140;SDS011;24875;48.436;10.298;2022-09-03T00:04:48;2.60;;;1.92;;
39140;SDS011;24875;48.436;10.298;2022-09-03T00:07:22;3.70;;;2.42;;
39140;SDS011;24875;48.436;10.298;2022-09-03T00:09:56;3.00;;;2.15;;
39140;SDS011;24875;48.436;10.298;2022-09-03T00:12:31;4.80;;;2.22;;
39140;SDS011;24875;48.436;10.298;2022-09-03T00:15:02;2.67;;;1.95;;
39140;SDS011;24875;48.436;10.298;2022-09-03T00:17:31;4.00;;;2.05;;
39140;SDS011;24875;48.436;10.298;2022-09-03T00:20:02;2.75;;;2.22;;
39140;SDS011;24875;48.436;10.298;2022-09-03T00:22:34;3.83;;;2.10;;
39140;SDS011;24875;48.436;10.298;2022-09-03T00:25:05;2.33;;;1.75;;
39140;SDS011;24875;48.436;10.298;2022-09-03T00:27:37;3.88;;;2.15;;
39140;SDS011;24875;48.436;10.298;2022-09-03T00:30:08;2.25;;;2.03;;
39140;SDS011;24875;48.436;10.298;2022-09-03T00:32:38;2.67;;;1.80;;
39140;SDS011;24875;48.436;10.298;2022-09-03T00:35:10;3.55;;;2.05;;
39140;SDS011;24875;48.436;10.298;2022-09-03T00:37:43;2.70;;;1.90;;
39140;SDS011;24875;48.436;10.298;2022-09-03T00:40:12;4.32;;;2.17;;
39140;SDS011;24875;48.436;10.298;2022-09-03T00:42:50;3.47;;;2.10;;
39140;SDS011;24875;48.436;10.298;2022-09-03T00:45:28;3.95;;;2.30;;
39140;SDS011;24875;48.436;10.298;2022-09-03T00:48:02;3.47;;;1.92;;
39140;SDS011;24875;48.436;10.298;2022-09-03T00:50:37;4.45;;;2.22;;
39140;SDS011;24875;48.436;10.298;2022-09-03T00:53:14;10.48;;;2.10;;
39140;SDS011;24875;48.436;10.298;2022-09-03T00:55:47;4.85;;;2.33;;
39140;SDS011;24875;48.436;10.298;2022-09-03T00:58:31;3.55;;;2.08;;
39140;SDS011;24875;48.436;10.298;2022-09-03T01:01:12;2.40;;;2.10;;
39140;SDS011;24875;48.436;10.298;2022-09-03T01:03:42;4.30;;;2.08;;
39140;SDS011;24875;48.436;10.298;2022-09-03T01:06:21;2.63;;;2.13;;
39140;SDS011;24875;48.436;10.298;2022-09-03T01:09:02;3.33;;;2.38;;
39140;SDS011;24875;48.436;10.298;2022-09-03T01:11:42;10.30;;;2.55;;
39140;SDS011;24875;48.436;10.298;2022-09-03T01:14:26;4.28;;;2.35;;
39140;SDS011;24875;48.436;10.298;2022-09-03T01:17:00;2.42;;;2.00;;
39140;SDS011;24875;48.436;10.298;2022-09-03T01:22:38;2.90;;;2.20;;
39140;SDS011;24875;48.436;10.298;2022-09-03T01:25:30;2.45;;;2.03;;
39140;SDS011;24875;48.436;10.298;2022-09-03T01:28:13;3.05;;;2.13;;
39140;SDS011;24875;48.436;10.298;2022-09-03T01:30:48;6.68;;;2.20;;
39140;SDS011;24875;48.436;10.298;2022-09-03T01:33:23;3.28;;;2.28;;
39140;SDS011;24875;48.436;10.298;2022-09-03T01:35:58;2.20;;;2.00;;
39140;SDS011;24875;48.436;10.298;2022-09-03T01:38:34;3.33;;;2.35;;
39140;SDS011;24875;48.436;10.298;2022-09-03T01:41:07;4.00;;;2.15;;
39140;SDS011;24875;48.436;10.298;2022-09-03T01:44:02;5.15;;;2.30;;
39140;SDS011;24875;48.436;10.298;2022-09-03T01:46:41;4.05;;;2.42;;
39140;SDS011;24875;48.436;10.298;2022-09-03T01:49:13;3.78;;;2.38;;
39140;SDS011;24875;48.436;10.298;2022-09-03T01:51:46;7.90;;;2.47;;
39140;SDS011;24875;48.436;10.298;2022-09-03T01:54:23;6.07;;;2.50;;
39140;SDS011;24875;48.436;10.298;2022-09-03T01:57:18;2.38;;;2.10;;
39140;SDS011;24875;48.436;10.298;2022-09-03T01:59:56;4.57;;;2.38;;
39140;SDS011;24875;48.436;10.298;2022-09-03T02:02:27;3.58;;;2.63;;
39140;SDS011;24875;48.436;10.298;2022-09-03T02:04:55;3.63;;;2.20;;
39140;SDS011;24875;48.436;10.298;2022-09-03T02:07:26;2.95;;;2.40;;
39140;SDS011;24875;48.436;10.298;2022-09-03T02:09:58;3.47;;;2.20;;
39140;SDS011;24875;48.436;10.298;2022-09-03T02:12:25;6.00;;;2.55;;
39140;SDS011;24875;48.436;10.298;2022-09-03T02:14:59;4.00;;;2.53;;
39140;SDS011;24875;48.436;10.298;2022-09-03T02:17:27;3.00;;;2.35;;
39140;SDS011;24875;48.436;10.298;2022-09-03T02:19:54;5.32;;;2.15;;
39140;SDS011;24875;48.436;10.298;2022-09-03T02:22:20;6.93;;;2.72;;
39140;SDS011;24875;48.436;10.298;2022-09-03T02:24:47;5.45;;;2.30;;
39140;SDS011;24875;48.436;10.298;2022-09-03T02:27:14;3.35;;;2.33;;
39140;SDS011;24875;48.436;10.298;2022-09-03T02:29:41;3.22;;;2.42;;
39140;SDS011;24875;48.436;10.298;2022-09-03T02:32:09;3.28;;;2.15;;
39140;SDS011;24875;48.436;10.298;2022-09-03T02:34:35;2.90;;;2.45;;
39140;SDS011;24875;48.436;10.298;2022-09-03T02:37:10;5.47;;;2.50;;
39140;SDS011;24875;48.436;10.298;2022-09-03T02:39:38;3.65;;;2.50;;
39140;SDS011;24875;48.436;10.298;2022-09-03T02:42:05;3.58;;;2.30;;
39140;SDS011;24875;48.436;10.298;2022-09-03T02:44:32;5.57;;;2.40;;
39140;SDS011;24875;48.436;10.298;2022-09-03T02:47:03;7.00;;;2.30;;
39140;SDS011;24875;48.436;10.298;2022-09-03T02:49:32;2.97;;;2.10;;
39140;SDS011;24875;48.436;10.298;2022-09-03T02:52:00;4.78;;;2.63;;
39140;SDS011;24875;48.436;10.298;2022-09-03T02:54:29;3.55;;;2.50;;
39140;SDS011;24875;48.436;10.298;2022-09-03T02:56:57;5.38;;;2.47;;
39140;SDS011;24875;48.436;10.298;2022-09-03T02:59:24;3.53;;;2.55;;
39140;SDS011;24875;48.436;10.298;2022-09-03T03:01:52;2.70;;;2.00;;
39140;SDS011;24875;48.436;10.298;2022-09-03T03:04:18;6.57;;;2.38;;
39140;SDS011;24875;48.436;10.298;2022-09-03T03:06:46;4.47;;;2.67;;
39140;SDS011;24875;48.436;10.298;2022-09-03T03:09:14;3.47;;;2.25;;
39140;SDS011;24875;48.436;10.298;2022-09-03T03:11:41;3.75;;;2.80;;
39140;SDS011;24875;48.436;10.298;2022-09-03T03:14:08;2.10;;;1.88;;
39140;SDS011;24875;48.436;10.298;2022-09-03T03:16:34;2.97;;;2.50;;
39140;SDS011;24875;48.436;10.298;2022-09-03T03:19:01;4.68;;;2.22;;
39140;SDS011;24875;48.436;10.298;2022-09-03T03:21:28;7.13;;;2.45;;
39140;SDS011;24875;48.436;10.298;2022-09-03T03:23:56;3.30;;;2.22;;
39140;SDS011;24875;48.436;10.298;2022-09-03T03:26:22;2.92;;;2.40;;
39140;SDS011;24875;48.436;10.298;2022-09-03T03:28:49;3.03;;;2.35;;
39140;SDS011;24875;48.436;10.298;2022-09-03T03:31:21;3.40;;;2.20;;
39140;SDS011;24875;48.436;10.298;2022-09-03T03:33:49;2.40;;;2.15;;
39140;SDS011;24875;48.436;10.298;2022-09-03T03:36:17;3.88;;;2.65;;
39140;SDS011;24875;48.436;10.298;2022-09-03T03:38:43;3.15;;;2.38;;
39140;SDS011;24875;48.436;10.298;2022-09-03T03:41:12;4.18;;;2.40;;
39140;SDS011;24875;48.436;10.298;2022-09-03T03:43:40;5.18;;;2.30;;
39140;SDS011;24875;48.436;10.298;2022-09-03T03:46:07;3.50;;;2.58;;
39140;SDS011;24875;48.436;10.298;2022-09-03T03:48:34;4.13;;;2.67;;
39140;SDS011;24875;48.436;10.298;2022-09-03T03:51:02;4.05;;;2.55;;
39140;SDS011;24875;48.436;10.298;2022-09-03T03:53:30;4.18;;;2.55;;
39140;SDS011;24875;48.436;10.298;2022-09-03T03:55:58;3.85;;;2.50;;
39140;SDS011;24875;48.436;10.298;2022-09-03T03:58:28;5.03;;;2.35;;
39140;SDS011;24875;48.436;10.298;2022-09-03T04:01:02;3.50;;;2.67;;
39140;SDS011;24875;48.436;10.298;2022-09-03T04:03:30;2.95;;;2.35;;
39140;SDS011;24875;48.436;10.298;2022-09-03T04:05:56;2.58;;;2.17;;
39140;SDS011;24875;48.436;10.298;2022-09-03T04:08:24;3.45;;;2.42;;
39140;SDS011;24875;48.436;10.298;2022-09-03T04:10:51;4.80;;;2.63;;
39140;SDS011;24875;48.436;10.298;2022-09-03T04:13:18;3.00;;;2.25;;
39140;SDS011;24875;48.436;10.298;2022-09-03T04:15:45;3.58;;;2.20;;
39140;SDS011;24875;48.436;10.298;2022-09-03T04:18:12;3.33;;;2.15;;
39140;SDS011;24875;48.436;10.298;2022-09-03T04:20:38;5.38;;;2.45;;
39140;SDS011;24875;48.436;10.298;2022-09-03T04:23:05;5.15;;;2.88;;
39140;SDS011;24875;48.436;10.298;2022-09-03T04:25:31;7.75;;;2.45;;
39140;SDS011;24875;48.436;10.298;2022-09-03T04:27:58;3.42;;;2.33;;
39140;SDS011;24875;48.436;10.298;2022-09-03T04:30:24;2.55;;;2.22;;
39140;SDS011;24875;48.436;10.298;2022-09-03T04:32:53;4.40;;;2.40;;
39140;SDS011;24875;48.436;10.298;2022-09-03T04:35:18;3.20;;;2.40;;
39140;SDS011;24875;48.436;10.298;2022-09-03T04:37:46;4.60;;;2.55;;
39140;SDS011;24875;48.436;10.298;2022-09-03T04:40:12;5.78;;;2.20;;
39140;SDS011;24875;48.436;10.298;2022-09-03T04:42:39;4.45;;;2.45;;
39140;SDS011;24875;48.436;10.298;2022-09-03T04:45:06;3.75;;;2.33;;
39140;SDS011;24875;48.436;10.298;2022-09-03T04:47:34;3.00;;;2.47;;
39140;SDS011;24875;48.436;10.298;2022-09-03T04:50:02;3.85;;;2.15;;
39140;SDS011;24875;48.436;10.298;2022-09-03T04:52:30;4.20;;;2.40;;
39140;SDS011;24875;48.436;10.298;2022-09-03T04:54:57;6.57;;;2.35;;
39140;SDS011;24875;48.436;10.298;2022-09-03T04:57:24;6.50;;;2.80;;
39140;SDS011;24875;48.436;10.298;2022-09-03T04:59:51;5.22;;;2.38;;
39140;SDS011;24875;48.436;10.298;2022-09-03T05:02:17;6.90;;;2.50;;
39140;SDS011;24875;48.436;10.298;2022-09-03T05:04:45;3.40;;;2.80;;
39140;SDS011;24875;48.436;10.298;2022-09-03T05:07:13;3.10;;;2.47;;
39140;SDS011;24875;48.436;10.298;2022-09-03T05:09:40;4.45;;;2.80;;
39140;SDS011;24875;48.436;10.298;2022-09-03T05:12:06;5.97;;;2.30;;
39140;SDS011;24875;48.436;10.298;2022-09-03T05:14:33;4.05;;;2.50;;
39140;SDS011;24875;48.436;10.298;2022-09-03T05:16:59;3.20;;;2.63;;
39140;SDS011;24875;48.436;10.298;2022-09-03T05:19:26;5.00;;;2.58;;
39140;SDS011;24875;48.436;10.298;2022-09-03T05:21:52;4.32;;;2.63;;
39140;SDS011;24875;48.436;10.298;2022-09-03T05:24:20;3.72;;;2.60;;
39140;SDS011;24875;48.436;10.298;2022-09-03T05:26:46;4.03;;;2.60;;
39140;SDS011;24875;48.436;10.298;2022-09-03T05:29:13;5.93;;;2.63;;
39140;SDS011;24875;48.436;10.298;2022-09-03T05:31:40;3.58;;;2.40;;
39140;SDS011;24875;48.436;10.298;2022-09-03T05:34:06;4.20;;;2.70;;
39140;SDS011;24875;48.436;10.298;2022-09-03T05:36:34;3.25;;;2.47;;
39140;SDS011;24875;48.436;10.298;2022-09-03T05:39:02;8.77;;;3.30;;
39140;SDS011;24875;48.436;10.298;2022-09-03T05:41:30;7.82;;;2.92;;
39140;SDS011;24875;48.436;10.298;2022-09-03T05:43:58;3.15;;;2.72;;
39140;SDS011;24875;48.436;10.298;2022-09-03T05:46:25;4.63;;;3.15;;
39140;SDS011;24875;48.436;10.298;2022-09-03T05:48:55;5.50;;;3.03;;
39140;SDS011;24875;48.436;10.298;2022-09-03T05:51:23;4.00;;;3.08;;
39140;SDS011;24875;48.436;10.298;2022-09-03T05:53:49;4.57;;;3.40;;
39140;SDS011;24875;48.436;10.298;2022-09-03T05:56:18;6.68;;;3.08;;
39140;SDS011;24875;48.436;10.298;2022-09-03T05:58:47;4.82;;;3.30;;
39140;SDS011;24875;48.436;10.298;2022-09-03T06:01:16;8.05;;;3.40;;
39140;SDS011;24875;48.436;10.298;2022-09-03T06:03:44;4.25;;;2.95;;
39140;SDS011;24875;48.436;10.298;2022-09-03T06:06:12;5.97;;;3.13;;
39140;SDS011;24875;48.436;10.298;2022-09-03T06:08:39;7.45;;;3.63;;
39140;SDS011;24875;48.436;10.298;2022-09-03T06:11:08;5.60;;;3.75;;
39140;SDS011;24875;48.436;10.298;2022-09-03T06:13:35;7.20;;;3.53;;
39140;SDS011;24875;48.436;10.298;2022-09-03T06:16:03;5.70;;;3.53;;
39140;SDS011;24875;48.436;10.298;2022-09-03T06:18:32;7.03;;;4.30;;
39140;SDS011;24875;48.436;10.298;2022-09-03T06:20:59;6.38;;;4.25;;
39140;SDS011;24875;48.436;10.298;2022-09-03T06:23:27;10.38;;;4.80;;
39140;SDS011;24875;48.436;10.298;2022-09-03T06:26:01;7.75;;;5.43;;
39140;SDS011;24875;48.436;10.298;2022-09-03T06:28:29;10.02;;;4.55;;
39140;SDS011;24875;48.436;10.298;2022-09-03T06:30:56;9.40;;;5.45;;
39140;SDS011;24875;48.436;10.298;2022-09-03T06:33:25;10.27;;;5.90;;
39140;SDS011;24875;48.436;10.298;2022-09-03T06:35:52;10.55;;;6.47;;
39140;SDS011;24875;48.436;10.298;2022-09-03T06:38:22;11.80;;;6.10;;
39140;SDS011;24875;48.436;10.298;2022-09-03T06:40:50;8.27;;;5.25;;
39140;SDS011;24875;48.436;10.298;2022-09-03T06:43:17;9.80;;;4.70;;
39140;SDS011;24875;48.436;10.298;2022-09-03T06:45:51;7.55;;;4.35;;
39140;SDS011;24875;48.436;10.298;2022-09-03T06:48:18;7.10;;;3.83;;
39140;SDS011;24875;48.436;10.298;2022-09-03T06:50:53;5.95;;;3.92;;
39140;SDS011;24875;48.436;10.298;2022-09-03T06:53:21;6.72;;;4.13;;
39140;SDS011;24875;48.436;10.298;2022-09-03T06:55:51;7.15;;;4.07;;
39140;SDS011;24875;48.436;10.298;2022-09-03T06:58:18;6.43;;;4.65;;
39140;SDS011;24875;48.436;10.298;2022-09-03T07:00:46;7.43;;;4.00;;
39140;SDS011;24875;48.436;10.298;2022-09-03T07:03:13;8.18;;;4.20;;
39140;SDS011;24875;48.436;10.298;2022-09-03T07:05:40;6.55;;;4.07;;
39140;SDS011;24875;48.436;10.298;2022-09-03T07:08:09;7.35;;;4.30;;
39140;SDS011;24875;48.436;10.298;2022-09-03T07:10:35;5.35;;;3.95;;
39140;SDS011;24875;48.436;10.298;2022-09-03T07:13:02;6.75;;;3.88;;
39140;SDS011;24875;48.436;10.298;2022-09-03T07:15:30;5.60;;;4.10;;
39140;SDS011;24875;48.436;10.298;2022-09-03T07:17:57;8.00;;;3.80;;
39140;SDS011;24875;48.436;10.298;2022-09-03T07:20:23;7.68;;;4.28;;
39140;SDS011;24875;48.436;10.298;2022-09-03T07:22:53;7.47;;;4.45;;
39140;SDS011;24875;48.436;10.298;2022-09-03T07:25:21;5.75;;;4.30;;
39140;SDS011;24875;48.436;10.298;2022-09-03T07:27:48;6.32;;;4.20;;
39140;SDS011;24875;48.436;10.298;2022-09-03T07:30:15;7.20;;;4.45;;
39140;SDS011;24875;48.436;10.298;2022-09-03T07:32:43;7.32;;;5.03;;
39140;SDS011;24875;48.436;10.298;2022-09-03T07:35:10;7.75;;;5.18;;
39140;SDS011;24875;48.436;10.298;2022-09-03T07:37:39;10.95;;;5.10;;
39140;SDS011;24875;48.436;10.298;2022-09-03T07:40:07;8.98;;;4.68;;
39140;SDS011;24875;48.436;10.298;2022-09-03T07:42:35;5.50;;;4.25;;
39140;SDS011;24875;48.436;10.298;2022-09-03T07:45:05;9.65;;;5.00;;
39140;SDS011;24875;48.436;10.298;2022-09-03T07:47:34;6.47;;;4.40;;
39140;SDS011;24875;48.436;10.298;2022-09-03T07:50:00;8.25;;;4.53;;
39140;SDS011;24875;48.436;10.298;2022-09-03T07:52:27;7.70;;;4.03;;
39140;SDS011;24875;48.436;10.298;2022-09-03T07:54:54;11.35;;;4.38;;
39140;SDS011;24875;48.436;10.298;2022-09-03T07:57:20;6.50;;;4.60;;
39140;SDS011;24875;48.436;10.298;2022-09-03T07:59:48;8.45;;;4.43;;
39140;SDS011;24875;48.436;10.298;2022-09-03T08:02:15;7.65;;;5.03;;
39140;SDS011;24875;48.436;10.298;2022-09-03T08:04:41;10.18;;;5.15;;
39140;SDS011;24875;48.436;10.298;2022-09-03T08:07:08;6.55;;;4.78;;
39140;SDS011;24875;48.436;10.298;2022-09-03T08:09:34;7.72;;;4.65;;
39140;SDS011;24875;48.436;10.298;2022-09-03T08:12:01;6.28;;;4.30;;
39140;SDS011;24875;48.436;10.298;2022-09-03T08:14:28;6.80;;;4.38;;
39140;SDS011;24875;48.436;10.298;2022-09-03T08:16:57;7.65;;;4.80;;
39140;SDS011;24875;48.436;10.298;2022-09-03T08:19:24;6.32;;;4.63;;
39140;SDS011;24875;48.436;10.298;2022-09-03T08:21:50;6.75;;;4.68;;
39140;SDS011;24875;48.436;10.298;2022-09-03T08:24:17;7.43;;;5.20;;
39140;SDS011;24875;48.436;10.298;2022-09-03T08:26:45;6.70;;;4.65;;
39140;SDS011;24875;48.436;10.298;2022-09-03T08:29:11;7.28;;;4.82;;
39140;SDS011;24875;48.436;10.298;2022-09-03T08:31:38;7.28;;;5.03;;
39140;SDS011;24875;48.436;10.298;2022-09-03T08:34:06;8.00;;;5.00;;
39140;SDS011;24875;48.436;10.298;2022-09-03T08:36:36;8.60;;;4.90;;
39140;SDS011;24875;48.436;10.298;2022-09-03T08:39:05;6.60;;;4.55;;
39140;SDS011;24875;48.436;10.298;2022-09-03T08:41:37;8.07;;;4.80;;
39140;SDS011;24875;48.436;10.298;2022-09-03T08:44:17;9.25;;;3.75;;
39140;SDS011;24875;48.436;10.298;2022-09-03T08:46:49;7.55;;;4.07;;
39140;SDS011;24875;48.436;10.298;2022-09-03T08:49:23;6.15;;;3.78;;
39140;SDS011;24875;48.436;10.298;2022-09-03T08:51:57;5.75;;;3.38;;
39140;SDS011;24875;48.436;10.298;2022-09-03T08:54:28;9.57;;;4.20;;
39140;SDS011;24875;48.436;10.298;2022-09-03T08:56:58;18.10;;;4.50;;
39140;SDS011;24875;48.436;10.298;2022-09-03T08:59:26;13.93;;;4.63;;
39140;SDS011;24875;48.436;10.298;2022-09-03T09:01:55;6.32;;;3.90;;
39140;SDS011;24875;48.436;10.298;2022-09-03T09:04:36;14.00;;;4.10;;
39140;SDS011;24875;48.436;10.298;2022-09-03T09:07:13;12.85;;;4.43;;
39140;SDS011;24875;48.436;10.298;2022-09-03T09:09:48;8.07;;;3.58;;
39140;SDS011;24875;48.436;10.298;2022-09-03T09:12:26;9.20;;;3.45;;
39140;SDS011;24875;48.436;10.298;2022-09-03T09:15:03;7.97;;;3.63;;
39140;SDS011;24875;48.436;10.298;2022-09-03T09:17:44;6.20;;;3.78;;
39140;SDS011;24875;48.436;10.298;2022-09-03T09:20:25;6.15;;;3.78;;
39140;SDS011;24875;48.436;10.298;2022-09-03T09:22:59;4.15;;;2.65;;
39140;SDS011;24875;48.436;10.298;2022-09-03T09:25:28;4.45;;;3.38;;
39140;SDS011;24875;48.436;10.298;2022-09-03T09:27:57;4.75;;;2.90;;
39140;SDS011;24875;48.436;10.298;2022-09-03T09:30:26;4.28;;;2.42;;
39140;SDS011;24875;48.436;10.298;2022-09-03T09:32:54;4.60;;;3.08;;
39140;SDS011;24875;48.436;10.298;2022-09-03T09:35:21;3.83;;;2.70;;
39140;SDS011;24875;48.436;10.298;2022-09-03T09:37:50;6.55;;;2.90;;
39140;SDS011;24875;48.436;10.298;2022-09-03T09:40:25;4.47;;;3.00;;
39140;SDS011;24875;48.436;10.298;2022-09-03T09:43:08;5.85;;;2.83;;
39140;SDS011;24875;48.436;10.298;2022-09-03T09:45:37;5.13;;;3.10;;
39140;SDS011;24875;48.436;10.298;2022-09-03T09:48:07;5.43;;;3.20;;
39140;SDS011;24875;48.436;10.298;2022-09-03T09:50:39;6.97;;;3.28;;
39140;SDS011;24875;48.436;10.298;2022-09-03T09:53:08;6.57;;;3.13;;
39140;SDS011;24875;48.436;10.298;2022-09-03T09:55:47;5.15;;;3.20;;
39140;SDS011;24875;48.436;10.298;2022-09-03T09:58:19;4.32;;;3.05;;
39140;SDS011;24875;48.436;10.298;2022-09-03T10:00:58;4.57;;;3.35;;
39140;SDS011;24875;48.436;10.298;2022-09-03T10:03:27;4.93;;;3.08;;
39140;SDS011;24875;48.436;10.298;2022-09-03T10:06:05;5.07;;;3.00;;
39140;SDS011;24875;48.436;10.298;2022-09-03T10:08:54;5.85;;;2.90;;
39140;SDS011;24875;48.436;10.298;2022-09-03T10:11:32;7.25;;;3.55;;
39140;SDS011;24875;48.436;10.298;2022-09-03T10:14:01;6.13;;;2.83;;
39140;SDS011;24875;48.436;10.298;2022-09-03T10:16:32;4.88;;;2.83;;
39140;SDS011;24875;48.436;10.298;2022-09-03T10:19:05;4.70;;;2.80;;
39140;SDS011;24875;48.436;10.298;2022-09-03T10:21:40;3.95;;;2.58;;
39140;SDS011;24875;48.436;10.298;2022-09-03T10:24:18;4.85;;;2.70;;
39140;SDS011;24875;48.436;10.298;2022-09-03T10:26:58;3.13;;;2.15;;
39140;SDS011;24875;48.436;10.298;2022-09-03T10:29:26;3.95;;;2.40;;
39140;SDS011;24875;48.436;10.298;2022-09-03T10:31:57;4.15;;;2.33;;
39140;SDS011;24875;48.436;10.298;2022-09-03T10:34:33;2.20;;;1.90;;
39140;SDS011;24875;48.436;10.298;2022-09-03T10:37:11;3.95;;;1.95;;
39140;SDS011;24875;48.436;10.298;2022-09-03T10:39:59;2.83;;;1.75;;
39140;SDS011;24875;48.436;10.298;2022-09-03T10:42:42;2.65;;;1.85;;
39140;SDS011;24875;48.436;10.298;2022-09-03T10:45:21;2.30;;;1.77;;
39140;SDS011;24875;48.436;10.298;2022-09-03T10:48:02;2.10;;;1.58;;
39140;SDS011;24875;48.436;10.298;2022-09-03T10:50:50;1.95;;;1.70;;
39140;SDS011;24875;48.436;10.298;2022-09-03T10:53:22;2.65;;;1.90;;
39140;SDS011;24875;48.436;10.298;2022-09-03T10:56:01;2.65;;;1.90;;
39140;SDS011;24875;48.436;10.298;2022-09-03T10:58:43;2.00;;;1.20;;
39140;SDS011;24875;48.436;10.298;2022-09-03T11:01:21;1.90;;;1.45;;
39140;SDS011;24875;48.436;10.298;2022-09-03T11:03:56;2.10;;;1.58;;
39140;SDS011;24875;48.436;10.298;2022-09-03T11:06:40;2.80;;;1.38;;
39140;SDS011;24875;48.436;10.298;2022-09-03T11:09:13;2.15;;;1.60;;
39140;SDS011;24875;48.436;10.298;2022-09-03T11:11:48;2.55;;;1.70;;
39140;SDS011;24875;48.436;10.298;2022-09-03T11:14:22;4.93;;;1.70;;
39140;SDS011;24875;48.436;10.298;2022-09-03T11:16:59;3.17;;;1.80;;
39140;SDS011;24875;48.436;10.298;2022-09-03T11:19:32;4.15;;;1.55;;
39140;SDS011;24875;48.436;10.298;2022-09-03T11:22:01;1.95;;;1.40;;
39140;SDS011;24875;48.436;10.298;2022-09-03T11:24:31;2.90;;;1.50;;
39140;SDS011;24875;48.436;10.298;2022-09-03T11:27:03;1.70;;;1.30;;
39140;SDS011;24875;48.436;10.298;2022-09-03T11:29:43;2.85;;;1.27;;
39140;SDS011;24875;48.436;10.298;2022-09-03T11:32:17;3.97;;;1.30;;
39140;SDS011;24875;48.436;10.298;2022-09-03T11:34:48;2.05;;;1.23;;
39140;SDS011;24875;48.436;10.298;2022-09-03T11:37:17;1.38;;;1.20;;
39140;SDS011;24875;48.436;10.298;2022-09-03T11:39:52;1.13;;;1.02;;
39140;SDS011;24875;48.436;10.298;2022-09-03T11:42:25;1.63;;;1.00;;
39140;SDS011;24875;48.436;10.298;2022-09-03T11:44:58;1.63;;;1.08;;
39140;SDS011;24875;48.436;10.298;2022-09-03T11:47:36;1.35;;;0.90;;
39140;SDS011;24875;48.436;10.298;2022-09-03T11:50:06;1.20;;;0.98;;
39140;SDS011;24875;48.436;10.298;2022-09-03T11:52:34;1.08;;;0.98;;
39140;SDS011;24875;48.436;10.298;2022-09-03T11:55:04;1.20;;;1.10;;
39140;SDS011;24875;48.436;10.298;2022-09-03T11:57:38;1.83;;;1.10;;
39140;SDS011;24875;48.436;10.298;2022-09-03T12:00:08;1.58;;;0.95;;
39140;SDS011;24875;48.436;10.298;2022-09-03T12:02:40;2.38;;;1.00;;
39140;SDS011;24875;48.436;10.298;2022-09-03T12:05:13;1.50;;;1.20;;
39140;SDS011;24875;48.436;10.298;2022-09-03T12:07:54;2.33;;;0.90;;
39140;SDS011;24875;48.436;10.298;2022-09-03T12:10:38;1.02;;;0.93;;
39140;SDS011;24875;48.436;10.298;2022-09-03T12:13:20;1.75;;;1.15;;
39140;SDS011;24875;48.436;10.298;2022-09-03T12:16:11;1.60;;;1.00;;
39140;SDS011;24875;48.436;10.298;2022-09-03T12:18:48;1.65;;;1.38;;
39140;SDS011;24875;48.436;10.298;2022-09-03T12:21:17;1.63;;;1.30;;
39140;SDS011;24875;48.436;10.298;2022-09-03T12:23:45;1.50;;;1.17;;
39140;SDS011;24875;48.436;10.298;2022-09-03T12:26:13;1.58;;;1.30;;
39140;SDS011;24875;48.436;10.298;2022-09-03T12:28:45;1.30;;;1.20;;
39140;SDS011;24875;48.436;10.298;2022-09-03T12:31:14;1.08;;;0.70;;
39140;SDS011;24875;48.436;10.298;2022-09-03T12:33:47;1.85;;;1.08;;
39140;SDS011;24875;48.436;10.298;2022-09-03T12:36:15;5.95;;;0.95;;
39140;SDS011;24875;48.436;10.298;2022-09-03T12:38:42;4.10;;;0.70;;
39140;SDS011;24875;48.436;10.298;2022-09-03T12:41:24;2.15;;;1.25;;
39140;SDS011;24875;48.436;10.298;2022-09-03T12:43:54;5.35;;;1.08;;
39140;SDS011;24875;48.436;10.298;2022-09-03T12:46:23;2.15;;;0.85;;
39140;SDS011;24875;48.436;10.298;2022-09-03T12:48:54;2.58;;;1.10;;
39140;SDS011;24875;48.436;10.298;2022-09-03T12:51:21;3.15;;;1.30;;
39140;SDS011;24875;48.436;10.298;2022-09-03T12:53:48;4.85;;;1.13;;
39140;SDS011;24875;48.436;10.298;2022-09-03T12:56:17;6.00;;;1.35;;
39140;SDS011;24875;48.436;10.298;2022-09-03T12:58:46;9.23;;;1.80;;
39140;SDS011;24875;48.436;10.298;2022-09-03T13:01:19;7.75;;;1.70;;
39140;SDS011;24875;48.436;10.298;2022-09-03T13:03:51;3.40;;;1.30;;
39140;SDS011;24875;48.436;10.298;2022-09-03T13:06:22;2.42;;;1.30;;
39140;SDS011;24875;48.436;10.298;2022-09-03T13:08:52;2.67;;;1.27;;
39140;SDS011;24875;48.436;10.298;2022-09-03T13:11:22;2.13;;;1.30;;
39140;SDS011;24875;48.436;10.298;2022-09-03T13:13:51;2.10;;;1.50;;
39140;SDS011;24875;48.436;10.298;2022-09-03T13:16:29;2.22;;;1.30;;
39140;SDS011;24875;48.436;10.298;2022-09-03T13:19:21;1.95;;;1.15;;
39140;SDS011;24875;48.436;10.298;2022-09-03T13:21:59;2.97;;;1.40;;
39140;SDS011;24875;48.436;10.298;2022-09-03T13:27:25;2.97;;;1.30;;
39140;SDS011;24875;48.436;10.298;2022-09-03T13:30:02;2.85;;;1.23;;
39140;SDS011;24875;48.436;10.298;2022-09-03T13:32:46;2.60;;;1.30;;
39140;SDS011;24875;48.436;10.298;2022-09-03T13:35:25;1.30;;;1.08;;
39140;SDS011;24875;48.436;10.298;2022-09-03T13:37:57;4.18;;;1.30;;
39140;SDS011;24875;48.436;10.298;2022-09-03T13:40:34;1.92;;;1.00;;
39140;SDS011;24875;48.436;10.298;2022-09-03T13:43:04;2.78;;;1.27;;
39140;SDS011;24875;48.436;10.298;2022-09-03T13:45:42;1.75;;;1.05;;
39140;SDS011;24875;48.436;10.298;2022-09-03T13:48:18;1.25;;;0.90;;
39140;SDS011;24875;48.436;10.298;2022-09-03T13:51:08;2.33;;;0.88;;
39140;SDS011;24875;48.436;10.298;2022-09-03T13:53:46;5.25;;;1.35;;
39140;SDS011;24875;48.436;10.298;2022-09-03T13:56:22;0.90;;;0.57;;
39140;SDS011;24875;48.436;10.298;2022-09-03T13:59:00;2.08;;;0.90;;
39140;SDS011;24875;48.436;10.298;2022-09-03T14:01:49;2.13;;;0.90;;
39140;SDS011;24875;48.436;10.298;2022-09-03T14:04:28;0.98;;;0.68;;
39140;SDS011;24875;48.436;10.298;2022-09-03T14:07:06;1.20;;;0.77;;
39140;SDS011;24875;48.436;10.298;2022-09-03T14:09:50;2.08;;;0.70;;
39140;SDS011;24875;48.436;10.298;2022-09-03T14:12:24;0.63;;;0.60;;
39140;SDS011;24875;48.436;10.298;2022-09-03T14:15:02;1.10;;;0.75;;
39140;SDS011;24875;48.436;10.298;2022-09-03T14:17:36;0.57;;;0.57;;
39140;SDS011;24875;48.436;10.298;2022-09-03T14:20:09;1.55;;;0.70;;
39140;SDS011;24875;48.436;10.298;2022-09-03T14:22:43;1.73;;;0.70;;
39140;SDS011;24875;48.436;10.298;2022-09-03T14:25:16;0.90;;;0.60;;
39140;SDS011;24875;48.436;10.298;2022-09-03T14:27:44;1.83;;;1.05;;
39140;SDS011;24875;48.436;10.298;2022-09-03T14:33:01;11.60;;;4.18;;
39140;SDS011;24875;48.436;10.298;2022-09-03T14:35:54;3.17;;;1.55;;
39140;SDS011;24875;48.436;10.298;2022-09-03T14:38:34;7.72;;;4.05;;
39140;SDS011;24875;48.436;10.298;2022-09-03T14:44:47;2.08;;;0.70;;
39140;SDS011;24875;48.436;10.298;2022-09-03T14:47:42;1.73;;;0.82;;
39140;SDS011;24875;48.436;10.298;2022-09-03T14:50:18;1.13;;;0.70;;
39140;SDS011;24875;48.436;10.298;2022-09-03T14:53:04;0.80;;;0.60;;
39140;SDS011;24875;48.436;10.298;2022-09-03T14:55:53;0.60;;;0.60;;
39140;SDS011;24875;48.436;10.298;2022-09-03T14:58:42;0.93;;;0.60;;
39140;SDS011;24875;48.436;10.298;2022-09-03T15:01:25;0.63;;;0.60;;
39140;SDS011;24875;48.436;10.298;2022-09-03T15:04:02;0.45;;;0.45;;
39140;SDS011;24875;48.436;10.298;2022-09-03T15:06:48;0.95;;;0.40;;
39140;SDS011;24875;48.436;10.298;2022-09-03T15:09:32;0.95;;;0.60;;
39140;SDS011;24875;48.436;10.298;2022-09-03T15:12:05;2.75;;;0.90;;
39140;SDS011;24875;48.436;10.298;2022-09-03T15:14:38;0.75;;;0.60;;